Meath Environmental Platform

Observations for Trim Patrick St

Time AQI Temp °C Hum % Pres Pa CO μg/m³ H₂S μg/m³ NO μg/m³ NO₂ μg/m³ O₃ μg/m³ SO₂ μg/m³ PM1 μg/m³ PM2.5 μg/m³ PM10 μg/m³
Friday 7 August 2026
20:47 3 23 44 68,904 0 21.92 1.44 29.73 56.26 10.08 2.86 8.38 9.22
20:46 3 23.1 43 68,900 0 21.94 1.42 28.75 54.37 10.09 4.57 10.73 11.8
20:45 3 23.2 43 68,922 0 21.2 1.4 31.28 54.09 9.89 2.86 8.39 9.23
20:44 3 23.3 44 68,924 0 20.25 1.37 32.34 53.42 9.49 2 6.82 7.51
20:43 3 23.4 43 68,926 0 22.31 1.37 30.23 52.72 10.5 2 7.63 8.4
20:42 3 23.4 43 68,928 0 21.83 1.38 38.97 49.32 9.86 3.71 10.76 11.84
20:41 3 23.5 43 68,957 0 22.57 1.37 33.03 53.25 10.69 2.86 8.44 9.28
20:40 3 23.6 43 68,941 0 21.8 1.34 29.21 57.54 9.99 2 8.43 9.27
20:39 3 23.7 43 68,947 0 24.24 1.33 34 52.98 10.95 2.86 8.44 9.28
20:38 3 23.8 43 68,953 0 21.19 1.29 33.84 55.25 9.73 2.86 8.41 9.25
20:37 3 23.8 42 68,965 0 21.8 1.3 39.75 48.86 10.39 2.86 7.67 8.44
20:36 3 23.9 41 68,975 0 22.44 1.32 38.05 52.67 10.74 2.86 9.3 10.23
20:35 3 24 42 68,995 0 22.14 1.29 29.49 57.35 10.79 3.71 9.27 10.2
20:34 3 24 42 68,985 0 21.93 1.27 30.98 58.67 10.68 2.86 8.46 9.31
20:33 3 24.1 42 68,941 0 22.49 1.26 33.64 55.94 10.8 2.86 8.49 9.33
20:32 3 24.2 42 68,943 0 21.21 1.24 36.38 52.2 10.23 3.71 8.49 9.33
20:31 3 24.2 42 68,945 0 22.64 1.25 48.07 48.13 10.9 3.71 9.27 10.2
20:30 3 24.3 41 68,949 0 21 1.26 33.96 52.55 10.7 2.86 9.32 10.25
20:29 3 24.3 42 68,953 0 22.64 1.23 31.25 57.92 10.89 2 8.51 9.36
20:28 3 24.4 42 68,955 0 25.05 1.21 42.35 51.57 11.59 2 7.73 8.5